Time;durP1;ratioP1;P1;durP2;ratioP2;P2;SDS_P1;SDS_P2;PMS_P1;PMS_P2;Temp;Humidity;BMP_temperature;BMP_pressure;BME280_temperature;BME280_humidity;BME280_pressure;Samples;Min_cycle;Max_cycle;Signal;HPM_P1;HPM_P2
2024/04/15 00:03:26;;;;;;;1.13;0.70;;;21.80;94.40;;;;;;10717909;26;19996;-69
2024/04/15 00:08:17;;;;;;;3.15;1.23;;;21.80;94.60;;;;;;10749631;26;20012;-69
2024/04/15 00:13:10;;;;;;;1.42;0.82;;;21.80;94.70;;;;;;10749905;26;19996;-69
2024/04/15 00:18:01;;;;;;;1.95;0.88;;;21.70;94.60;;;;;;10718092;26;20494;-68
2024/04/15 00:22:51;;;;;;;4.75;1.45;;;21.70;94.60;;;;;;10747569;26;19996;-69
2024/04/15 00:27:42;;;;;;;1.45;0.88;;;21.60;94.70;;;;;;10746900;26;19996;-69
2024/04/15 00:32:33;;;;;;;1.75;1.10;;;21.60;94.70;;;;;;10747777;26;20047;-68
2024/04/15 00:37:25;;;;;;;1.45;1.10;;;21.70;94.70;;;;;;10716991;26;20061;-68
2024/04/15 00:42:16;;;;;;;2.42;0.80;;;21.50;94.80;;;;;;10710904;26;20004;-68
2024/04/15 00:47:09;;;;;;;1.55;1.08;;;21.60;94.80;;;;;;10716469;26;20372;-68
2024/04/15 00:52:02;;;;;;;4.35;0.95;;;21.50;94.80;;;;;;10748255;26;20005;-68
2024/04/15 00:56:54;;;;;;;3.15;0.95;;;21.30;94.90;;;;;;10717281;26;20011;-68
2024/04/15 01:01:44;;;;;;;3.38;1.20;;;21.20;94.90;;;;;;10739785;26;20066;-68
2024/04/15 01:06:35;;;;;;;5.13;1.27;;;21.20;95.00;;;;;;10716727;26;20711;-68
2024/04/15 01:11:26;;;;;;;1.83;1.00;;;21.10;95.00;;;;;;10748565;26;20000;-69
2024/04/15 01:16:17;;;;;;;2.13;1.10;;;21.10;95.10;;;;;;10753668;26;20012;-67
2024/04/15 01:21:08;;;;;;;3.10;1.10;;;21.20;95.00;;;;;;10723546;26;20046;-68
2024/04/15 01:26:02;;;;;;;2.28;1.20;;;21.00;95.00;;;;;;10751715;26;20011;-70
2024/04/15 01:30:52;;;;;;;2.22;1.00;;;21.00;95.10;;;;;;10743448;26;20027;-68
2024/04/15 01:35:43;;;;;;;2.25;0.90;;;20.90;95.10;;;;;;10754180;26;20077;-68
2024/04/15 01:40:34;;;;;;;2.22;0.80;;;20.80;95.20;;;;;;10754158;26;20050;-68
2024/04/15 01:45:25;;;;;;;1.33;0.90;;;20.70;95.20;;;;;;10754035;26;20000;-69
2024/04/15 01:50:17;;;;;;;2.97;0.90;;;20.70;95.20;;;;;;10754509;26;20011;-67
2024/04/15 01:55:07;;;;;;;0.80;0.70;;;20.80;95.10;;;;;;10753774;26;20001;-68
2024/04/15 01:59:59;;;;;;;2.15;1.27;;;20.80;95.20;;;;;;10751286;26;20392;-67
2024/04/15 02:04:53;;;;;;;2.35;0.70;;;20.90;95.10;;;;;;10718012;26;20037;-68
2024/04/15 02:09:44;;;;;;;1.70;0.87;;;20.80;95.00;;;;;;10737643;26;20576;-69
2024/04/15 02:14:35;;;;;;;2.95;1.02;;;20.70;95.00;;;;;;10725777;26;20009;-69
2024/04/15 02:19:26;;;;;;;0.95;0.70;;;20.60;95.10;;;;;;10703906;26;20000;-68
2024/04/15 02:24:16;;;;;;;1.60;0.90;;;20.60;95.10;;;;;;10721566;26;20011;-68
2024/04/15 02:29:07;;;;;;;2.10;0.65;;;20.50;95.10;;;;;;10717738;26;20020;-67
2024/04/15 02:33:58;;;;;;;2.75;0.70;;;20.50;95.10;;;;;;10738248;26;20419;-68
2024/04/15 02:38:49;;;;;;;3.65;1.00;;;20.60;95.10;;;;;;10752560;26;20449;-68
2024/04/15 02:43:40;;;;;;;1.30;0.85;;;20.50;95.10;;;;;;10752785;26;20008;-69
2024/04/15 02:48:31;;;;;;;4.75;1.13;;;20.60;95.30;;;;;;10751926;26;20007;-68
2024/04/15 02:53:22;;;;;;;2.40;0.70;;;20.50;95.00;;;;;;10721104;26;20038;-69
2024/04/15 02:58:16;;;;;;;1.50;0.70;;;20.50;94.90;;;;;;10720727;26;19996;-68
2024/04/15 03:03:07;;;;;;;1.40;0.80;;;20.40;94.80;;;;;;10750275;26;20007;-68
2024/04/15 03:07:58;;;;;;;1.92;0.73;;;20.50;94.70;;;;;;10750078;26;20000;-68
2024/04/15 03:12:51;;;;;;;1.55;0.70;;;20.50;94.60;;;;;;10719822;26;20000;-68
2024/04/15 03:17:41;;;;;;;1.80;1.30;;;20.50;94.60;;;;;;10740854;26;20004;-68
2024/04/15 03:22:32;;;;;;;2.95;0.65;;;20.60;94.50;;;;;;10738877;26;20334;-68
2024/04/15 03:27:23;;;;;;;0.95;0.57;;;20.60;94.40;;;;;;10750777;26;20892;-68
2024/04/15 03:32:13;;;;;;;1.75;0.90;;;20.50;94.40;;;;;;10701094;26;20037;-69
2024/04/15 03:37:04;;;;;;;1.98;0.75;;;20.50;94.40;;;;;;10718538;26;20398;-69
2024/04/15 03:41:55;;;;;;;1.95;1.27;;;20.30;94.50;;;;;;10748975;26;20020;-69
2024/04/15 03:46:45;;;;;;;3.22;1.00;;;20.40;94.50;;;;;;10740345;26;20032;-71
2024/04/15 03:51:37;;;;;;;1.98;0.90;;;20.30;94.40;;;;;;10746774;26;19996;-68
2024/04/15 03:56:27;;;;;;;2.75;0.82;;;20.30;94.40;;;;;;10718787;26;20117;-69
2024/04/15 04:01:18;;;;;;;2.72;0.80;;;20.20;94.40;;;;;;10749770;26;20347;-70
2024/04/15 04:06:09;;;;;;;3.95;0.82;;;20.10;94.50;;;;;;10718441;26;20000;-71
2024/04/15 04:11:07;;;;;;;2.50;0.95;;;20.00;94.60;;;;;;10718978;26;20012;-72
2024/04/15 04:16:01;;;;;;;0.68;0.68;;;20.00;94.70;;;;;;10739475;26;20000;-68
2024/04/15 04:20:51;;;;;;;2.40;0.77;;;19.90;94.90;;;;;;10718959;26;20010;-69
2024/04/15 04:25:45;;;;;;;0.82;0.80;;;19.80;95.00;;;;;;10749289;26;20014;-69
2024/04/15 04:30:35;;;;;;;1.58;0.70;;;19.80;95.20;;;;;;10727806;26;20020;-68
2024/04/15 04:35:30;;;;;;;2.75;0.80;;;19.60;95.30;;;;;;10749408;26;20548;-68
2024/04/15 04:40:21;;;;;;;4.35;0.85;;;19.60;95.40;;;;;;10748788;26;20035;-70
2024/04/15 04:45:11;;;;;;;1.13;1.02;;;19.60;95.60;;;;;;10748916;26;20043;-68
2024/04/15 04:50:02;;;;;;;1.27;0.95;;;19.50;95.70;;;;;;10744397;26;20004;-72
2024/04/15 04:54:56;;;;;;;2.03;0.93;;;19.60;95.70;;;;;;10748417;26;20098;-74
2024/04/15 04:59:52;;;;;;;1.58;0.88;;;19.60;95.70;;;;;;10717610;26;20019;-71
2024/04/15 05:04:42;;;;;;;3.20;1.35;;;19.70;95.80;;;;;;10743969;26;20008;-71
2024/04/15 05:09:33;;;;;;;1.90;1.20;;;19.70;95.80;;;;;;10746294;26;20008;-69
2024/04/15 05:14:24;;;;;;;1.73;0.98;;;19.70;95.80;;;;;;10746449;26;20011;-71
2024/04/15 05:19:15;;;;;;;2.40;1.20;;;19.60;96.00;;;;;;10748281;26;20015;-74
2024/04/15 05:24:06;;;;;;;4.05;1.20;;;19.60;96.10;;;;;;10747488;26;20456;-71
2024/04/15 05:28:57;;;;;;;3.88;1.40;;;19.40;96.20;;;;;;10746294;26;20063;-71
2024/04/15 05:33:48;;;;;;;5.22;2.13;;;19.40;96.40;;;;;;10746997;26;20014;-71
2024/04/15 05:38:38;;;;;;;4.85;1.52;;;19.30;96.80;;;;;;10747117;26;20015;-68
2024/04/15 05:43:29;;;;;;;1.73;1.27;;;19.20;96.60;;;;;;10734147;26;20019;-71
2024/04/15 05:48:20;;;;;;;1.50;1.00;;;19.10;96.70;;;;;;10746675;26;20350;-72
2024/04/15 05:53:10;;;;;;;2.03;1.05;;;19.20;96.90;;;;;;10746698;26;20140;-72
2024/04/15 05:58:01;;;;;;;3.95;1.67;;;19.10;96.90;;;;;;10711917;26;20028;-69
2024/04/15 06:02:52;;;;;;;3.90;1.20;;;19.10;97.00;;;;;;10751415;26;19996;-71
2024/04/15 06:07:43;;;;;;;3.10;1.45;;;19.20;97.10;;;;;;10752796;26;19992;-72
2024/04/15 06:12:34;;;;;;;4.07;1.52;;;19.00;97.10;;;;;;10753433;26;20000;-72
2024/04/15 06:17:25;;;;;;;6.63;2.15;;;19.10;97.30;;;;;;10721871;26;19992;-70
2024/04/15 06:22:18;;;;;;;4.93;3.22;;;19.10;97.20;;;;;;10751225;26;20073;-72
2024/04/15 06:27:09;;;;;;;3.05;1.45;;;19.20;97.30;;;;;;10720894;26;20016;-72
2024/04/15 06:31:59;;;;;;;2.53;1.50;;;19.10;97.30;;;;;;10752471;26;20043;-69
2024/04/15 06:36:52;;;;;;;2.53;1.52;;;18.90;97.50;;;;;;10751484;26;20078;-71
2024/04/15 06:41:42;;;;;;;4.72;1.73;;;18.80;97.50;;;;;;10740445;26;19996;-71
2024/04/15 06:46:34;;;;;;;4.78;1.83;;;18.70;97.50;;;;;;10751900;26;20376;-73
2024/04/15 06:51:25;;;;;;;2.95;1.70;;;18.40;97.70;;;;;;10719249;26;20497;-72
2024/04/15 06:56:16;;;;;;;2.63;1.50;;;18.50;97.70;;;;;;10756397;26;19997;-72
2024/04/15 07:01:08;;;;;;;2.05;1.35;;;18.50;97.70;;;;;;10763964;26;19996;-79
2024/04/15 07:05:58;;;;;;;2.78;1.73;;;18.50;97.70;;;;;;10760236;26;20010;-75
2024/04/15 07:10:50;;;;;;;5.25;3.42;;;18.60;97.70;;;;;;10714364;26;20454;-75
2024/04/15 07:15:41;;;;;;;2.13;1.55;;;18.40;97.50;;;;;;10737180;26;20011;-74
2024/04/15 07:20:32;;;;;;;3.42;2.10;;;18.40;97.70;;;;;;10752014;26;20000;-73
2024/04/15 07:25:22;;;;;;;4.53;2.90;;;18.40;97.80;;;;;;10751678;26;20008;-75
2024/04/15 07:30:13;;;;;;;4.10;2.17;;;18.30;97.80;;;;;;10751056;26;20426;-74
2024/04/15 07:35:04;;;;;;;2.72;2.33;;;18.20;97.90;;;;;;10750860;26;20639;-74
2024/04/15 07:39:55;;;;;;;4.88;2.38;;;18.20;98.00;;;;;;10712884;26;20668;-72
2024/04/15 07:44:47;;;;;;;4.13;2.40;;;18.30;98.00;;;;;;10733688;26;20071;-73
2024/04/15 07:49:38;;;;;;;3.90;2.17;;;18.10;98.10;;;;;;10719196;26;20019;-73
2024/04/15 07:54:28;;;;;;;3.70;2.00;;;18.20;98.10;;;;;;10710811;26;20471;-71
2024/04/15 07:59:19;;;;;;;10.80;4.68;;;18.20;98.20;;;;;;10750952;26;20000;-71
2024/04/15 08:04:13;;;;;;;8.23;3.45;;;18.50;98.20;;;;;;10749796;26;20401;-69
2024/04/15 08:09:04;;;;;;;6.38;2.92;;;18.70;98.10;;;;;;10713877;26;20016;-68
2024/04/15 08:13:54;;;;;;;4.65;2.40;;;18.80;98.10;;;;;;10749330;26;20531;-67
2024/04/15 08:18:48;;;;;;;3.03;2.17;;;18.80;98.00;;;;;;10749740;26;20001;-64
2024/04/15 08:23:39;;;;;;;4.60;2.67;;;18.90;98.10;;;;;;10748820;26;20143;-66
2024/04/15 08:28:30;;;;;;;3.30;1.90;;;18.90;98.10;;;;;;10732940;26;20005;-68
2024/04/15 08:33:20;;;;;;;4.40;2.03;;;18.80;98.10;;;;;;10721116;26;20485;-66
2024/04/15 08:38:11;;;;;;;5.18;3.58;;;18.70;98.20;;;;;;10744227;26;20004;-67
2024/04/15 08:43:03;;;;;;;3.00;2.00;;;18.80;98.30;;;;;;10729117;26;20011;-70
2024/04/15 08:47:56;;;;;;;2.58;2.22;;;18.70;98.30;;;;;;10738889;26;20527;-74
2024/04/15 08:52:54;;;;;;;4.65;2.00;;;18.70;98.40;;;;;;10695214;26;20477;-66
2024/04/15 08:57:46;;;;;;;3.28;2.80;;;18.60;98.50;;;;;;10748107;26;20000;-63
2024/04/15 09:02:38;;;;;;;4.13;1.52;;;18.50;98.60;;;;;;10744565;26;20434;-67
2024/04/15 09:07:28;;;;;;;3.42;1.73;;;18.40;98.50;;;;;;10746471;26;20069;-70
2024/04/15 09:12:19;;;;;;;5.78;2.15;;;18.50;98.60;;;;;;10747460;26;20391;-66
2024/04/15 09:17:12;;;;;;;3.55;2.20;;;18.60;98.50;;;;;;10743609;26;20441;-66
2024/04/15 09:22:03;;;;;;;6.32;2.40;;;18.60;98.60;;;;;;10704516;26;20016;-66
2024/04/15 09:26:54;;;;;;;5.60;2.20;;;18.70;98.70;;;;;;10754158;26;19997;-67
2024/04/15 09:31:44;;;;;;;3.35;1.77;;;18.60;98.70;;;;;;10742767;26;20008;-67
2024/04/15 09:36:45;;;;;;;4.75;2.58;;;18.70;98.80;;;;;;10753733;26;20030;-66
2024/04/15 09:41:39;;;;;;;5.30;2.17;;;18.80;98.90;;;;;;10742206;26;20015;-68
2024/04/15 09:46:33;;;;;;;2.53;2.33;;;19.10;98.90;;;;;;10752584;26;20011;-67
2024/04/15 09:51:24;;;;;;;6.80;3.00;;;19.10;98.80;;;;;;10751948;26;20077;-69
2024/04/15 09:56:41;;;;;;;3.85;2.88;;;19.30;98.80;;;;;;10752820;26;20000;-68
2024/04/15 10:01:32;;;;;;;5.00;2.40;;;19.30;99.00;;;;;;10736235;26;20110;-67
2024/04/15 10:06:30;;;;;;;4.43;2.13;;;19.20;99.00;;;;;;10753204;26;20070;-69
2024/04/15 10:11:21;;;;;;;5.68;2.70;;;19.30;99.10;;;;;;10754029;26;20043;-67
2024/04/15 10:16:19;;;;;;;4.45;2.25;;;19.30;99.20;;;;;;10722473;26;20001;-70
2024/04/15 10:21:10;;;;;;;2.70;1.90;;;19.30;99.20;;;;;;10753064;26;20341;-67
2024/04/15 10:26:01;;;;;;;3.55;1.83;;;19.20;99.20;;;;;;10741233;26;20000;-67
2024/04/15 10:30:51;;;;;;;2.33;1.10;;;19.10;99.20;;;;;;10710650;26;20337;-69
2024/04/15 10:35:44;;;;;;;2.60;1.65;;;19.20;99.00;;;;;;10753060;26;20007;-71
2024/04/15 10:40:43;;;;;;;3.55;1.55;;;19.40;98.90;;;;;;10752335;26;20000;-69
2024/04/15 10:45:34;;;;;;;1.35;0.90;;;19.20;98.70;;;;;;10720438;26;20012;-70
2024/04/15 10:50:25;;;;;;;3.08;1.10;;;19.20;98.60;;;;;;10752627;26;20004;-71
2024/04/15 10:55:16;;;;;;;2.03;1.10;;;19.30;98.30;;;;;;10752408;26;20001;-69
2024/04/15 11:00:14;;;;;;;1.88;1.08;;;19.20;98.30;;;;;;10751549;26;20074;-71
2024/04/15 11:05:07;;;;;;;2.45;1.35;;;19.30;98.00;;;;;;10751136;26;20008;-70
2024/04/15 11:09:58;;;;;;;1.85;0.93;;;19.40;97.80;;;;;;10751506;26;20004;-66
2024/04/15 11:14:54;;;;;;;2.40;1.10;;;19.40;97.70;;;;;;10719765;26;20512;-65
2024/04/15 11:19:45;;;;;;;2.78;1.00;;;19.40;97.60;;;;;;10740045;26;20099;-67
2024/04/15 11:24:36;;;;;;;2.45;1.25;;;19.30;97.40;;;;;;10750319;26;20308;-66
2024/04/15 11:29:27;;;;;;;3.10;1.45;;;19.40;97.30;;;;;;10738087;26;20051;-66
2024/04/15 11:34:17;;;;;;;2.85;1.83;;;19.50;97.20;;;;;;10739607;26;20039;-67
2024/04/15 11:39:08;;;;;;;1.60;0.98;;;19.50;97.10;;;;;;10750570;26;20844;-66
2024/04/15 11:44:00;;;;;;;3.33;0.90;;;19.70;97.00;;;;;;10718818;26;20657;-66
2024/04/15 11:48:50;;;;;;;1.95;1.05;;;19.60;96.90;;;;;;10749415;26;20443;-67
2024/04/15 11:53:45;;;;;;;12.10;1.27;;;19.40;96.90;;;;;;10748503;26;19996;-66
2024/04/15 11:58:36;;;;;;;1.45;1.33;;;19.40;96.80;;;;;;10746856;26;20004;-67
2024/04/15 12:03:27;;;;;;;1.60;0.82;;;19.40;96.70;;;;;;10717959;26;20004;-67
2024/04/15 12:08:21;;;;;;;1.90;1.27;;;19.40;96.60;;;;;;10748212;26;20296;-66
2024/04/15 12:13:11;;;;;;;2.88;1.90;;;19.40;96.50;;;;;;10749122;26;20442;-69
2024/04/15 12:18:03;;;;;;;1.92;0.82;;;19.40;96.40;;;;;;10730606;26;19996;-67
2024/04/15 12:22:53;;;;;;;2.67;0.80;;;19.70;96.10;;;;;;10740677;26;19992;-70
2024/04/15 12:27:45;;;;;;;1.83;1.00;;;19.90;95.80;;;;;;10747608;26;19992;-69
2024/04/15 12:32:35;;;;;;;2.22;1.30;;;19.90;95.70;;;;;;10748609;26;20012;-67
2024/04/15 12:37:26;;;;;;;1.45;0.98;;;20.00;95.60;;;;;;10750041;26;20001;-65
2024/04/15 12:42:17;;;;;;;3.53;1.33;;;20.20;95.40;;;;;;10749358;26;20015;-66
2024/04/15 12:47:07;;;;;;;3.67;1.63;;;20.30;95.10;;;;;;10746290;26;20008;-65
2024/04/15 12:51:58;;;;;;;3.80;0.80;;;20.50;94.90;;;;;;10742825;26;20072;-68
2024/04/15 12:56:49;;;;;;;2.80;0.88;;;20.40;94.80;;;;;;10780636;26;20002;-67
2024/04/15 13:01:39;;;;;;;3.65;1.10;;;20.00;95.00;;;;;;10754729;26;20000;-65
2024/04/15 13:06:30;;;;;;;0.82;0.70;;;20.10;94.60;;;;;;10745109;26;20043;-65
2024/04/15 13:11:21;;;;;;;2.38;0.80;;;20.20;94.40;;;;;;10731543;26;20044;-65
2024/04/15 13:16:11;;;;;;;5.18;1.00;;;20.30;94.30;;;;;;10740633;26;20329;-66
2024/04/15 13:21:04;;;;;;;2.40;1.08;;;20.40;94.10;;;;;;10742753;26;20000;-68
2024/04/15 13:25:54;;;;;;;9.23;1.00;;;20.70;93.70;;;;;;10729876;26;20000;-65
2024/04/15 13:30:45;;;;;;;3.60;0.95;;;20.70;93.30;;;;;;10722463;26;20003;-65
2024/04/15 13:35:36;;;;;;;2.20;1.00;;;20.80;92.90;;;;;;10732276;26;20011;-65
2024/04/15 13:40:26;;;;;;;3.50;1.38;;;21.00;92.60;;;;;;10691774;26;20005;-64
2024/04/15 13:45:18;;;;;;;5.00;1.30;;;20.90;92.30;;;;;;10726647;26;20000;-65
2024/04/15 13:50:10;;;;;;;1.85;0.50;;;20.80;92.20;;;;;;10724940;26;20128;-67
2024/04/15 13:55:03;;;;;;;1.40;0.73;;;20.80;91.90;;;;;;10741986;26;20146;-64
2024/04/15 13:59:54;;;;;;;1.17;0.65;;;20.90;91.50;;;;;;10730918;26;20012;-63
2024/04/15 14:04:44;;;;;;;1.42;0.70;;;21.20;91.00;;;;;;10735835;26;20361;-64
2024/04/15 14:09:36;;;;;;;2.22;1.13;;;21.50;90.90;;;;;;10739987;26;20011;-64
2024/04/15 14:14:27;;;;;;;1.30;0.90;;;22.20;90.40;;;;;;10744525;26;20637;-65
2024/04/15 14:19:17;;;;;;;2.15;0.63;;;22.10;90.50;;;;;;10744520;26;20049;-64
2024/04/15 14:24:08;;;;;;;2.28;0.80;;;21.60;90.20;;;;;;10749571;26;20004;-65
2024/04/15 14:28:59;;;;;;;2.10;0.75;;;21.30;90.20;;;;;;10752796;26;20000;-73
2024/04/15 14:33:49;;;;;;;1.67;0.45;;;21.10;90.10;;;;;;10720625;26;20338;-65
2024/04/15 14:38:42;;;;;;;2.88;0.73;;;20.90;90.00;;;;;;10752388;26;20077;-66
2024/04/15 14:43:33;;;;;;;1.60;0.57;;;20.70;89.90;;;;;;10749756;26;20675;-68
2024/04/15 14:48:25;;;;;;;2.42;1.38;;;20.70;89.60;;;;;;10749032;26;20028;-64
2024/04/15 14:53:15;;;;;;;3.33;0.95;;;20.90;89.20;;;;;;10718171;26;20004;-67
2024/04/15 14:58:10;;;;;;;0.93;0.80;;;20.80;88.90;;;;;;10750674;26;20918;-67
2024/04/15 15:03:02;;;;;;;2.65;0.85;;;20.70;88.80;;;;;;10746977;26;20527;-65
2024/04/15 15:07:52;;;;;;;12.63;1.23;;;20.60;88.60;;;;;;10739203;26;19996;-70
2024/04/15 15:12:44;;;;;;;0.80;0.65;;;20.60;88.10;;;;;;10702119;26;19996;-68
2024/04/15 15:17:35;;;;;;;3.17;0.60;;;20.40;87.80;;;;;;10709471;26;20362;-66
2024/04/15 15:22:26;;;;;;;1.45;0.73;;;20.20;87.20;;;;;;10751016;26;20035;-68
2024/04/15 15:27:16;;;;;;;1.10;0.60;;;20.20;87.00;;;;;;10751829;26;20000;-67
2024/04/15 15:32:07;;;;;;;2.92;0.80;;;20.20;86.70;;;;;;10751687;26;19997;-68
2024/04/15 15:36:58;;;;;;;5.00;0.75;;;20.10;86.50;;;;;;10749472;26;20000;-64
2024/04/15 15:41:48;;;;;;;1.20;0.70;;;20.00;85.80;;;;;;10748861;26;20442;-66
2024/04/15 15:46:39;;;;;;;1.75;0.63;;;20.00;85.80;;;;;;10739152;26;20050;-67
2024/04/15 15:51:34;;;;;;;3.38;0.70;;;20.00;85.60;;;;;;10748615;26;20298;-67
2024/04/15 15:56:24;;;;;;;3.35;0.50;;;19.90;85.00;;;;;;10747882;26;20000;-69
2024/04/15 16:01:15;;;;;;;6.88;1.05;;;19.80;84.60;;;;;;10719804;26;20702;-67
2024/04/15 16:06:07;;;;;;;4.95;0.75;;;19.80;84.20;;;;;;10739356;26;20157;-68
2024/04/15 16:10:58;;;;;;;1.33;0.60;;;19.80;83.90;;;;;;10760317;26;20022;-67
2024/04/15 16:15:48;;;;;;;2.60;1.05;;;19.70;83.80;;;;;;10748482;26;20483;-68
2024/04/15 16:20:39;;;;;;;2.10;0.68;;;19.70;83.70;;;;;;10748306;26;20012;-67
2024/04/15 16:25:30;;;;;;;3.08;1.20;;;19.50;83.50;;;;;;10743683;26;20000;-67
2024/04/15 16:30:20;;;;;;;2.00;0.60;;;19.40;83.50;;;;;;10744115;26;19996;-68
2024/04/15 16:35:13;;;;;;;2.63;0.70;;;19.30;83.40;;;;;;10746091;26;20008;-65
2024/04/15 16:40:05;;;;;;;1.17;0.50;;;19.30;83.10;;;;;;10749674;26;20023;-73
2024/04/15 16:44:55;;;;;;;2.83;0.80;;;19.80;82.80;;;;;;10742880;26;20011;-71
2024/04/15 16:49:46;;;;;;;1.85;0.77;;;20.00;82.60;;;;;;10744380;26;20000;-68
2024/04/15 16:54:37;;;;;;;3.33;0.70;;;20.30;82.30;;;;;;10747773;26;20019;-68
2024/04/15 16:59:27;;;;;;;2.53;0.80;;;20.30;82.00;;;;;;10748157;26;20011;-66
2024/04/15 17:04:18;;;;;;;1.65;0.77;;;20.30;82.30;;;;;;10747990;26;20012;-68
2024/04/15 17:09:12;;;;;;;1.70;0.57;;;19.90;82.40;;;;;;10736895;26;20007;-68
2024/04/15 17:14:03;;;;;;;2.95;0.50;;;19.60;82.50;;;;;;10716499;26;20498;-71
2024/04/15 17:18:53;;;;;;;1.85;0.55;;;19.40;82.60;;;;;;10747503;26;19997;-69
2024/04/15 17:23:44;;;;;;;4.53;0.68;;;19.30;82.60;;;;;;10743172;26;20474;-67
2024/04/15 17:28:35;;;;;;;0.85;0.40;;;19.30;82.60;;;;;;10736217;26;20030;-70
2024/04/15 17:33:25;;;;;;;1.63;0.47;;;19.20;82.30;;;;;;10744199;26;20012;-67
2024/04/15 17:38:17;;;;;;;3.95;1.23;;;18.90;82.20;;;;;;10711309;26;20338;-67
2024/04/15 17:43:07;;;;;;;2.67;0.73;;;19.00;82.30;;;;;;10715028;26;20004;-68
2024/04/15 17:47:58;;;;;;;1.95;0.57;;;18.90;82.20;;;;;;10730341;26;20008;-66
2024/04/15 17:52:49;;;;;;;1.45;0.68;;;18.60;82.10;;;;;;10746297;26;20492;-67
2024/04/15 17:57:39;;;;;;;1.38;0.70;;;18.70;82.10;;;;;;10740776;26;20052;-67
2024/04/15 18:02:30;;;;;;;1.85;0.57;;;18.60;81.90;;;;;;10752549;26;20421;-68
2024/04/15 18:07:21;;;;;;;4.40;0.52;;;18.60;82.10;;;;;;10745908;26;20446;-66
2024/04/15 18:12:11;;;;;;;1.08;0.47;;;17.40;83.50;;;;;;10750485;26;20117;-68
2024/04/15 18:17:02;;;;;;;2.63;0.70;;;16.30;86.70;;;;;;10752704;26;20070;-67
2024/04/15 18:21:53;;;;;;;1.20;0.90;;;15.50;88.20;;;;;;10718868;26;20001;-66
2024/04/15 18:26:44;;;;;;;1.17;0.45;;;14.80;90.30;;;;;;10733645;26;20015;-66
2024/04/15 18:31:35;;;;;;;2.03;0.80;;;14.60;90.20;;;;;;10739253;26;20000;-66
2024/04/15 18:36:25;;;;;;;1.17;0.50;;;14.30;90.50;;;;;;10736135;26;20077;-67
2024/04/15 18:41:17;;;;;;;3.38;0.88;;;13.90;90.20;;;;;;10753866;26;20008;-67
2024/04/15 18:46:08;;;;;;;2.03;0.75;;;13.50;90.90;;;;;;10753697;26;20005;-67
2024/04/15 18:50:59;;;;;;;1.58;0.70;;;13.40;91.10;;;;;;10751154;26;20011;-66
2024/04/15 18:55:49;;;;;;;3.17;1.63;;;13.40;91.00;;;;;;10752247;26;20062;-68
2024/04/15 19:00:40;;;;;;;1.33;0.57;;;13.30;90.90;;;;;;10735292;26;20046;-65
2024/04/15 19:05:30;;;;;;;0.28;0.28;;;13.30;91.20;;;;;;10747496;26;20011;-66
2024/04/15 19:10:21;;;;;;;2.95;0.70;;;13.40;91.20;;;;;;10752074;26;19996;-66
2024/04/15 19:15:12;;;;;;;0.70;0.40;;;13.40;91.30;;;;;;10750920;26;20039;-69
2024/04/15 19:20:03;;;;;;;1.98;0.50;;;13.10;91.60;;;;;;10738898;26;20028;-66
2024/04/15 19:24:54;;;;;;;0.60;0.45;;;13.00;91.90;;;;;;10740393;26;20007;-66
2024/04/15 19:29:46;;;;;;;1.95;0.38;;;13.20;92.20;;;;;;10749361;26;19992;-66
2024/04/15 19:34:37;;;;;;;0.50;0.40;;;13.20;92.20;;;;;;10749648;26;20014;-66
2024/04/15 19:39:27;;;;;;;0.32;0.30;;;13.20;92.20;;;;;;10750111;26;19992;-67
2024/04/15 19:44:18;;;;;;;0.50;0.40;;;13.30;92.40;;;;;;10749700;26;20932;-71
2024/04/15 19:49:09;;;;;;;0.63;0.35;;;13.20;92.50;;;;;;10749685;26;20107;-70
2024/04/15 19:53:59;;;;;;;0.88;0.30;;;13.20;92.80;;;;;;10735804;26;20633;-68
2024/04/15 19:58:50;;;;;;;0.38;0.30;;;13.20;92.80;;;;;;10716412;26;20011;-67
2024/04/15 20:03:41;;;;;;;0.47;0.17;;;13.10;92.90;;;;;;10745362;26;20004;-66
2024/04/15 20:08:32;;;;;;;0.82;0.32;;;12.90;93.10;;;;;;10748559;26;20000;-70
2024/04/15 20:13:23;;;;;;;1.35;0.50;;;13.00;93.10;;;;;;10738763;26;20012;-68
2024/04/15 20:18:42;;;;;;;0.80;0.40;;;13.00;93.00;;;;;;10748253;26;20015;-73
2024/04/15 20:23:25;;;;;;;2.38;0.40;;;13.20;93.10;;;;;;10748382;26;19996;-66
2024/04/15 20:28:15;;;;;;;1.17;0.40;;;13.00;93.20;;;;;;10748700;26;20007;-68
2024/04/15 20:33:06;;;;;;;2.35;0.43;;;13.10;93.20;;;;;;10747686;26;20014;-66
2024/04/15 20:38:00;;;;;;;4.60;0.80;;;13.10;93.30;;;;;;10748426;26;20078;-71
2024/04/15 20:42:54;;;;;;;0.57;0.30;;;13.10;93.30;;;;;;10748675;26;20012;-68
2024/04/15 20:47:44;;;;;;;0.68;0.30;;;13.10;93.50;;;;;;10748305;26;20004;-71
2024/04/15 20:52:35;;;;;;;0.35;0.30;;;13.10;93.40;;;;;;10746449;26;20004;-67
2024/04/15 20:57:26;;;;;;;0.65;0.65;;;13.20;93.50;;;;;;10746359;26;20004;-71
2024/04/15 21:02:16;;;;;;;0.30;0.20;;;13.20;93.60;;;;;;10746476;26;19996;-72
2024/04/15 21:07:07;;;;;;;0.68;0.40;;;13.20;93.70;;;;;;10798700;21;20004;-71
2024/04/15 21:12:03;;;;;;;1.65;0.40;;;13.20;93.90;;;;;;10788330;26;20004;-71
2024/04/15 21:16:54;;;;;;;2.15;0.47;;;13.30;93.90;;;;;;10785360;26;20003;-66
2024/04/15 21:21:44;;;;;;;0.63;0.40;;;13.30;94.10;;;;;;10816207;26;20000;-68
2024/04/15 21:26:36;;;;;;;1.90;0.40;;;13.20;94.00;;;;;;10811692;26;20004;-70
2024/04/15 21:31:27;;;;;;;0.32;0.28;;;13.10;94.00;;;;;;10786354;26;20077;-71
2024/04/15 21:36:18;;;;;;;2.65;0.40;;;13.10;94.10;;;;;;10823583;26;20516;-69
2024/04/15 21:41:09;;;;;;;1.35;0.50;;;13.10;94.10;;;;;;10823174;26;19999;-68
2024/04/15 21:45:59;;;;;;;1.58;0.75;;;13.10;94.10;;;;;;10788837;26;20060;-69
2024/04/15 21:50:50;;;;;;;1.15;0.47;;;13.00;94.10;;;;;;10822966;26;20030;-67
2024/04/15 21:55:41;;;;;;;0.98;0.63;;;13.00;94.20;;;;;;10820748;26;20026;-67
2024/04/15 22:00:32;;;;;;;2.58;0.40;;;13.00;94.20;;;;;;10820722;26;19996;-67
2024/04/15 22:05:22;;;;;;;1.05;0.30;;;13.00;94.10;;;;;;10805130;26;20015;-70
2024/04/15 22:10:13;;;;;;;0.95;0.30;;;13.10;94.20;;;;;;10809266;26;19995;-66
2024/04/15 22:15:04;;;;;;;1.33;0.40;;;13.00;94.20;;;;;;10774239;26;20053;-65
2024/04/15 22:19:55;;;;;;;1.45;0.40;;;12.90;94.10;;;;;;10821995;26;19995;-68
2024/04/15 22:24:46;;;;;;;0.40;0.13;;;12.80;94.30;;;;;;10820211;26;20023;-70
2024/04/15 22:29:36;;;;;;;2.15;0.30;;;12.80;94.30;;;;;;10790912;26;20000;-71
2024/04/15 22:34:27;;;;;;;1.25;1.15;;;12.80;94.30;;;;;;10820625;26;20380;-69
2024/04/15 22:39:20;;;;;;;0.90;0.40;;;12.60;94.40;;;;;;10818287;26;20004;-67
2024/04/15 22:44:11;;;;;;;1.88;0.55;;;12.60;94.50;;;;;;10818191;26;20038;-68
2024/04/15 22:49:01;;;;;;;0.90;0.30;;;12.70;94.50;;;;;;10815497;26;20011;-71
2024/04/15 22:53:52;;;;;;;0.60;0.30;;;12.60;94.50;;;;;;10807947;26;20000;-71
2024/04/15 22:58:43;;;;;;;2.90;0.47;;;12.60;94.40;;;;;;10807519;26;20005;-71
2024/04/15 23:03:33;;;;;;;1.08;0.43;;;12.60;94.60;;;;;;10777793;26;20393;-71
2024/04/15 23:08:24;;;;;;;1.88;1.30;;;12.60;94.60;;;;;;10813985;26;20477;-72
2024/04/15 23:13:14;;;;;;;1.13;0.47;;;12.60;94.50;;;;;;10813247;26;20343;-73
2024/04/15 23:18:05;;;;;;;1.92;0.47;;;12.60;94.50;;;;;;10820811;26;20003;-72
2024/04/15 23:22:56;;;;;;;3.65;0.60;;;12.40;94.60;;;;;;10818770;26;19996;-72
2024/04/15 23:27:46;;;;;;;1.25;0.30;;;12.50;94.50;;;;;;10782760;26;20000;-72
2024/04/15 23:32:37;;;;;;;1.80;0.80;;;12.50;94.50;;;;;;10791690;26;20027;-72
2024/04/15 23:37:28;;;;;;;1.48;0.60;;;12.50;94.50;;;;;;10778420;26;20088;-71
2024/04/15 23:42:20;;;;;;;1.02;0.40;;;12.40;94.60;;;;;;10804619;26;19995;-72
2024/04/15 23:47:11;;;;;;;2.00;0.65;;;12.30;94.60;;;;;;10808469;26;20003;-73
2024/04/15 23:52:01;;;;;;;3.00;0.55;;;12.30;94.50;;;;;;10779630;26;19996;-73
2024/04/15 23:56:52;;;;;;;2.17;0.80;;;12.40;94.60;;;;;;10797552;26;19995;-73
